createdAt,value
2022-12-25T00:00:55.483Z,11.13
2022-12-25T00:03:23.090Z,10.85
2022-12-25T00:05:50.179Z,10.70
2022-12-25T00:08:17.153Z,10.88
2022-12-25T00:10:45.456Z,11.32
2022-12-25T00:13:12.800Z,11.25
2022-12-25T00:15:40.698Z,11.07
2022-12-25T00:18:07.695Z,10.70
2022-12-25T00:20:34.697Z,12.40
2022-12-25T00:23:01.804Z,13.32
2022-12-25T00:25:28.872Z,12.77
2022-12-25T00:27:55.931Z,13.55
2022-12-25T00:30:22.908Z,15.30
2022-12-25T00:32:49.933Z,14.88
2022-12-25T00:35:16.999Z,14.02
2022-12-25T00:37:44.069Z,15.07
2022-12-25T00:40:11.453Z,12.27
2022-12-25T00:42:38.755Z,14.07
2022-12-25T00:45:06.330Z,12.38
2022-12-25T00:47:33.377Z,11.25
2022-12-25T00:50:00.515Z,11.27
2022-12-25T00:52:27.589Z,10.32
2022-12-25T00:54:54.673Z,11.02
2022-12-25T00:57:21.751Z,9.63
2022-12-25T00:59:48.751Z,10.07
2022-12-25T01:02:15.989Z,9.95
2022-12-25T01:04:43.168Z,11.70
2022-12-25T01:07:10.169Z,9.68
2022-12-25T01:09:37.640Z,9.70
2022-12-25T01:12:04.834Z,9.30
2022-12-25T01:14:31.893Z,9.88
2022-12-25T01:16:59.024Z,9.90
2022-12-25T01:19:26.290Z,12.38
2022-12-25T01:21:53.399Z,14.23
2022-12-25T01:24:20.536Z,13.60
2022-12-25T01:26:47.665Z,13.52
2022-12-25T01:29:14.731Z,14.57
2022-12-25T01:31:42.068Z,14.40
2022-12-25T01:34:09.355Z,11.45
2022-12-25T01:36:36.391Z,11.73
2022-12-25T01:39:03.932Z,10.95
2022-12-25T01:41:31.127Z,10.98
2022-12-25T01:44:14.474Z,12.68
2022-12-25T01:46:43.401Z,12.80
2022-12-25T01:49:22.468Z,15.00
2022-12-25T01:52:02.220Z,16.23
2022-12-25T01:54:33.375Z,14.52
2022-12-25T01:57:09.311Z,15.40
2022-12-25T01:59:37.507Z,15.90
2022-12-25T02:02:04.668Z,16.25
2022-12-25T02:04:38.215Z,18.58
2022-12-25T02:07:13.159Z,16.92
2022-12-25T02:09:41.202Z,15.52
2022-12-25T02:12:14.784Z,16.48
2022-12-25T02:14:41.843Z,16.38
2022-12-25T02:17:42.950Z,16.38
2022-12-25T02:20:33.389Z,15.27
2022-12-25T02:23:38.234Z,15.57
2022-12-25T02:26:29.823Z,16.70
2022-12-25T02:29:25.293Z,14.25
2022-12-25T02:32:01.915Z,11.15
2022-12-25T02:34:38.068Z,10.35
2022-12-25T02:37:12.890Z,10.48
2022-12-25T02:39:44.084Z,9.43
2022-12-25T02:42:22.451Z,8.35
2022-12-25T02:44:51.337Z,9.63
2022-12-25T02:47:19.777Z,8.90
2022-12-25T02:49:49.301Z,9.73
2022-12-25T02:52:19.817Z,7.97
2022-12-25T02:54:59.711Z,8.43
2022-12-25T02:57:32.293Z,9.40
2022-12-25T03:00:01.983Z,7.88
2022-12-25T03:02:31.134Z,9.75
2022-12-25T03:05:02.937Z,11.82
2022-12-25T03:10:05.007Z,8.52
2022-12-25T03:12:42.387Z,7.82
2022-12-25T03:15:12.565Z,8.73
2022-12-25T03:17:39.677Z,7.93
2022-12-25T03:20:07.535Z,10.45
2022-12-25T03:22:34.853Z,9.90
2022-12-25T03:25:02.692Z,12.27
2022-12-25T03:27:33.153Z,14.15
2022-12-25T03:30:00.882Z,11.90
2022-12-25T03:32:39.641Z,11.55
2022-12-25T03:35:31.325Z,11.68
2022-12-25T03:38:23.078Z,11.65
2022-12-25T03:41:08.132Z,12.82
2022-12-25T03:43:54.161Z,11.90
2022-12-25T03:46:27.309Z,12.95
2022-12-25T03:49:03.839Z,12.13
2022-12-25T03:51:35.910Z,12.77
2022-12-25T03:54:06.135Z,11.98
2022-12-25T03:56:35.996Z,12.98
2022-12-25T03:59:03.461Z,13.40
2022-12-25T04:01:30.572Z,12.05
2022-12-25T04:03:57.756Z,13.27
2022-12-25T04:06:24.743Z,12.07
2022-12-25T04:08:51.847Z,12.48
2022-12-25T04:11:19.015Z,11.20
2022-12-25T04:13:45.998Z,12.98
2022-12-25T04:16:13.068Z,11.70
2022-12-25T04:18:40.582Z,11.80
2022-12-25T04:21:07.621Z,11.85
2022-12-25T04:23:34.667Z,11.55
2022-12-25T04:26:01.715Z,12.13
2022-12-25T04:28:28.819Z,12.52
2022-12-25T04:31:00.672Z,11.23
2022-12-25T04:33:27.810Z,11.75
2022-12-25T04:35:54.857Z,13.18
2022-12-25T04:38:21.938Z,11.68
2022-12-25T04:40:49.032Z,11.93
2022-12-25T04:43:16.082Z,11.32
2022-12-25T04:45:43.095Z,11.15
2022-12-25T04:48:10.125Z,10.43
2022-12-25T04:50:37.180Z,11.15
2022-12-25T04:53:04.300Z,9.52
2022-12-25T04:55:31.346Z,10.82
2022-12-25T04:57:58.343Z,10.07
2022-12-25T05:00:25.362Z,8.80
2022-12-25T05:02:52.576Z,11.48
2022-12-25T05:05:19.869Z,11.68
2022-12-25T05:07:46.946Z,10.98
2022-12-25T05:10:14.047Z,11.95
2022-12-25T05:12:41.204Z,11.35
2022-12-25T05:15:08.668Z,11.13
2022-12-25T05:17:35.657Z,12.38
2022-12-25T05:20:03.447Z,10.32
2022-12-25T05:22:30.547Z,10.52
2022-12-25T05:24:57.540Z,10.52
2022-12-25T05:27:24.725Z,12.43
2022-12-25T05:29:51.709Z,10.23
2022-12-25T05:32:18.788Z,10.05
2022-12-25T05:34:45.882Z,9.85
2022-12-25T05:37:13.053Z,9.65
2022-12-25T05:39:40.174Z,13.23
2022-12-25T05:42:07.179Z,16.60
2022-12-25T05:44:34.236Z,17.27
2022-12-25T05:47:01.409Z,15.35
2022-12-25T05:49:28.495Z,13.15
2022-12-25T05:51:55.645Z,12.95
2022-12-25T05:54:22.669Z,10.55
2022-12-25T05:56:49.804Z,11.40
2022-12-25T05:59:16.928Z,11.10
2022-12-25T06:01:44.049Z,10.98
2022-12-25T06:04:12.993Z,10.00
2022-12-25T06:06:40.696Z,10.15
2022-12-25T06:09:08.675Z,9.68
2022-12-25T06:11:35.679Z,9.07
2022-12-25T06:14:02.797Z,9.75
2022-12-25T06:16:37.324Z,9.98
2022-12-25T06:19:05.692Z,9.77
2022-12-25T06:21:33.019Z,11.43
2022-12-25T06:24:01.121Z,12.40
2022-12-25T06:26:28.530Z,13.90
2022-12-25T06:28:55.573Z,13.55
2022-12-25T06:31:23.990Z,13.68
2022-12-25T06:33:51.298Z,12.95
2022-12-25T06:36:21.399Z,13.50
2022-12-25T06:38:50.602Z,14.32
2022-12-25T06:41:20.228Z,13.82
2022-12-25T06:43:53.090Z,14.32
2022-12-25T06:46:20.969Z,13.15
2022-12-25T06:48:48.122Z,11.48
2022-12-25T06:51:16.711Z,11.15
2022-12-25T06:53:43.865Z,10.32
2022-12-25T06:56:13.684Z,11.10
2022-12-25T06:58:46.159Z,11.68
2022-12-25T07:01:28.494Z,9.93
2022-12-25T07:04:01.790Z,10.80
2022-12-25T07:06:29.261Z,11.13
2022-12-25T07:08:56.720Z,7.60
2022-12-25T07:11:24.382Z,7.20
2022-12-25T07:13:51.449Z,6.68
2022-12-25T07:16:18.581Z,9.60
2022-12-25T07:18:45.803Z,12.20
2022-12-25T07:21:18.657Z,10.88
2022-12-25T07:23:47.020Z,11.50
2022-12-25T07:26:14.466Z,11.98
2022-12-25T07:28:41.576Z,9.98
2022-12-25T07:31:14.105Z,8.88
2022-12-25T07:33:41.687Z,12.38
2022-12-25T07:36:12.589Z,12.75
2022-12-25T07:38:41.701Z,14.93
2022-12-25T07:41:10.547Z,16.80
2022-12-25T07:43:37.665Z,12.70
2022-12-25T07:46:05.195Z,12.52
2022-12-25T07:48:32.604Z,11.48
2022-12-25T07:51:04.914Z,11.70
2022-12-25T07:53:32.548Z,11.77
2022-12-25T07:56:06.038Z,10.07
2022-12-25T07:58:34.213Z,10.02
2022-12-25T08:01:05.945Z,11.38
2022-12-25T08:06:02.274Z,10.88
2022-12-25T08:08:29.616Z,11.75
2022-12-25T08:10:56.632Z,12.07
2022-12-25T08:13:23.875Z,17.35
2022-12-25T08:15:51.082Z,14.05
2022-12-25T08:18:18.163Z,14.50
2022-12-25T08:20:45.161Z,10.43
2022-12-25T08:23:12.153Z,8.68
2022-12-25T08:25:39.313Z,11.27
2022-12-25T08:28:06.402Z,11.27
2022-12-25T08:30:33.614Z,11.27
2022-12-25T08:33:00.733Z,12.52
2022-12-25T08:35:29.066Z,12.00
2022-12-25T08:37:56.045Z,12.20
2022-12-25T08:40:23.099Z,9.25
2022-12-25T08:42:50.092Z,10.00
2022-12-25T08:45:17.176Z,9.73
2022-12-25T08:47:44.165Z,9.25
2022-12-25T08:50:11.184Z,10.65
2022-12-25T08:52:38.586Z,10.43
2022-12-25T08:55:06.052Z,9.23
2022-12-25T08:57:33.072Z,9.25
2022-12-25T09:00:02.731Z,8.55
2022-12-25T09:02:29.975Z,10.98
2022-12-25T09:04:57.310Z,14.57
2022-12-25T09:07:24.469Z,12.27
2022-12-25T09:09:51.599Z,12.50
2022-12-25T09:12:18.855Z,10.40
2022-12-25T09:14:45.906Z,10.43
2022-12-25T09:17:12.961Z,10.85
2022-12-25T09:19:40.094Z,9.98
2022-12-25T09:22:07.105Z,8.93
2022-12-25T09:24:34.202Z,5.43
2022-12-25T09:27:01.354Z,4.40
2022-12-25T09:29:28.390Z,4.93
2022-12-25T09:31:55.410Z,4.63
2022-12-25T09:34:22.590Z,4.07
2022-12-25T09:36:49.877Z,4.18
2022-12-25T09:39:17.085Z,4.18
2022-12-25T09:42:05.299Z,4.30
2022-12-25T09:44:37.210Z,4.25
2022-12-25T09:47:21.934Z,5.20
2022-12-25T09:50:18.706Z,6.93
2022-12-25T09:53:16.358Z,6.85
2022-12-25T09:55:53.215Z,5.88
2022-12-25T09:58:20.296Z,5.22
2022-12-25T10:00:57.585Z,5.05
2022-12-25T10:03:46.282Z,5.22
2022-12-25T10:06:16.972Z,5.40
2022-12-25T10:08:43.919Z,5.35
2022-12-25T10:11:26.017Z,5.97
2022-12-25T10:14:08.025Z,4.38
2022-12-25T10:19:33.500Z,5.15
2022-12-25T10:22:09.049Z,4.88
2022-12-25T10:24:42.693Z,4.50
2022-12-25T10:27:32.487Z,4.53
2022-12-25T10:30:01.629Z,4.90
2022-12-25T10:32:28.734Z,4.60
2022-12-25T10:34:55.944Z,4.72
2022-12-25T10:37:23.036Z,5.28
2022-12-25T10:39:50.037Z,5.18
2022-12-25T10:42:28.713Z,4.80
2022-12-25T10:44:59.225Z,4.35
2022-12-25T10:47:30.859Z,4.55
2022-12-25T10:49:58.719Z,4.05
2022-12-25T10:52:28.526Z,3.60
2022-12-25T10:54:55.911Z,3.83
2022-12-25T10:57:25.708Z,3.85
2022-12-25T10:59:54.985Z,3.40
2022-12-25T11:02:27.303Z,3.50
2022-12-25T11:05:04.121Z,4.20
2022-12-25T11:07:33.094Z,3.33
2022-12-25T11:10:05.568Z,3.40
2022-12-25T11:12:41.796Z,5.57
2022-12-25T11:15:42.365Z,6.40
2022-12-25T11:18:33.110Z,6.47
2022-12-25T11:21:18.051Z,3.72
2022-12-25T11:23:50.796Z,3.20
2022-12-25T11:26:18.554Z,3.25
2022-12-25T11:28:46.735Z,16.95
2022-12-25T11:31:23.014Z,4.60
2022-12-25T11:34:04.350Z,5.38
2022-12-25T11:36:43.521Z,4.85
2022-12-25T11:39:30.284Z,3.30
2022-12-25T11:42:23.174Z,3.53
2022-12-25T11:45:26.009Z,2.72
2022-12-25T11:48:04.772Z,3.28
2022-12-25T11:50:36.329Z,3.10
2022-12-25T11:53:17.378Z,4.72
2022-12-25T11:55:50.963Z,5.30
2022-12-25T11:58:42.025Z,4.00
2022-12-25T12:01:21.619Z,3.05
2022-12-25T12:03:49.270Z,4.15
2022-12-25T12:06:54.427Z,5.35
2022-12-25T12:09:55.139Z,4.53
2022-12-25T12:12:48.837Z,4.80
2022-12-25T12:15:28.820Z,4.80
2022-12-25T12:18:07.905Z,4.75
2022-12-25T12:20:36.614Z,4.97
2022-12-25T12:23:15.363Z,5.35
2022-12-25T12:25:44.532Z,5.35
2022-12-25T12:28:21.439Z,6.05
2022-12-25T12:31:04.339Z,11.57
2022-12-25T12:33:36.900Z,7.32
2022-12-25T12:36:05.788Z,5.10
2022-12-25T12:38:34.157Z,6.82
2022-12-25T12:41:07.176Z,6.70
2022-12-25T12:43:52.813Z,6.15
2022-12-25T12:46:30.084Z,5.38
2022-12-25T12:49:19.897Z,5.28
2022-12-25T12:51:48.272Z,5.00
2022-12-25T12:54:23.344Z,5.10
2022-12-25T12:57:06.138Z,5.05
2022-12-25T12:59:38.925Z,3.92
2022-12-25T13:02:25.763Z,4.32
2022-12-25T13:05:05.219Z,3.78
2022-12-25T13:07:56.784Z,4.40
2022-12-25T13:10:32.314Z,4.60
2022-12-25T13:13:23.315Z,4.03
2022-12-25T13:15:51.557Z,3.70
2022-12-25T13:18:20.650Z,3.45
2022-12-25T13:21:01.815Z,3.65
2022-12-25T13:23:34.547Z,3.75
2022-12-25T13:26:04.888Z,3.65
2022-12-25T13:28:33.951Z,4.63
2022-12-25T13:31:13.094Z,4.70
2022-12-25T13:33:44.686Z,5.10
2022-12-25T13:36:14.563Z,4.85
2022-12-25T13:38:46.543Z,5.43
2022-12-25T13:41:19.974Z,5.38
2022-12-25T13:43:48.684Z,5.20
2022-12-25T13:46:16.100Z,4.60
2022-12-25T13:48:43.243Z,4.90
2022-12-25T13:51:15.608Z,4.88
2022-12-25T13:53:43.734Z,4.57
2022-12-25T13:56:15.617Z,4.35
2022-12-25T13:58:46.573Z,4.47
2022-12-25T14:01:16.206Z,4.57
2022-12-25T14:03:45.660Z,4.95
2022-12-25T14:06:18.420Z,5.20
2022-12-25T14:08:46.269Z,5.32
2022-12-25T14:11:19.756Z,5.43
2022-12-25T14:13:49.435Z,5.35
2022-12-25T14:16:19.190Z,4.28
2022-12-25T14:19:00.931Z,4.38
2022-12-25T14:21:34.836Z,3.70
2022-12-25T14:24:02.119Z,4.13
2022-12-25T14:26:32.469Z,3.60
2022-12-25T14:29:05.390Z,3.40
2022-12-25T14:31:33.543Z,3.33
2022-12-25T14:34:02.966Z,3.67
2022-12-25T14:36:33.153Z,3.10
2022-12-25T14:39:22.516Z,3.20
2022-12-25T14:41:54.159Z,4.65
2022-12-25T14:46:51.404Z,8.05
2022-12-25T14:49:25.368Z,6.68
2022-12-25T14:51:52.460Z,6.80
2022-12-25T14:54:22.432Z,4.57
2022-12-25T14:56:52.704Z,5.05
2022-12-25T14:59:24.673Z,5.05
2022-12-25T15:01:59.965Z,6.28
2022-12-25T15:04:28.331Z,7.28
2022-12-25T15:06:58.205Z,7.72
2022-12-25T15:09:26.771Z,7.53
2022-12-25T15:11:55.468Z,6.80
2022-12-25T15:14:23.417Z,6.20
2022-12-25T15:16:57.456Z,6.40
2022-12-25T15:19:33.177Z,6.20
2022-12-25T15:22:03.986Z,6.03
2022-12-25T15:24:31.896Z,6.00
2022-12-25T15:26:58.917Z,6.00
2022-12-25T15:29:52.200Z,5.72
2022-12-25T15:32:21.942Z,5.15
2022-12-25T15:34:49.350Z,5.25
2022-12-25T15:37:17.464Z,5.30
2022-12-25T15:39:45.129Z,5.80
2022-12-25T15:42:18.004Z,5.30
2022-12-25T15:44:45.560Z,5.13
2022-12-25T15:47:14.322Z,8.82
2022-12-25T15:49:42.040Z,7.43
2022-12-25T15:52:13.588Z,6.00
2022-12-25T15:54:47.623Z,6.90
2022-12-25T15:57:19.503Z,8.02
2022-12-25T15:59:46.840Z,7.07
2022-12-25T16:02:19.911Z,5.63
2022-12-25T16:04:47.249Z,4.65
2022-12-25T16:07:19.806Z,4.22
2022-12-25T16:09:47.199Z,7.28
2022-12-25T16:12:14.196Z,5.88
2022-12-25T16:14:41.264Z,5.90
2022-12-25T16:17:15.302Z,6.35
2022-12-25T16:19:43.677Z,6.35
2022-12-25T16:22:18.786Z,6.45
2022-12-25T16:24:45.829Z,7.22
2022-12-25T16:27:12.915Z,7.68
2022-12-25T16:29:39.987Z,6.97
2022-12-25T16:32:07.077Z,7.53
2022-12-25T16:34:38.563Z,9.35
2022-12-25T16:37:05.591Z,9.30
2022-12-25T16:39:33.049Z,8.57
2022-12-25T16:42:00.147Z,8.65
2022-12-25T16:44:27.322Z,8.35
2022-12-25T16:46:54.452Z,9.02
2022-12-25T16:49:21.466Z,7.80
2022-12-25T16:51:48.479Z,24.70
2022-12-25T16:54:15.525Z,16.35
2022-12-25T16:56:42.565Z,10.32
2022-12-25T16:59:09.711Z,8.70
2022-12-25T17:01:39.228Z,7.25
2022-12-25T17:04:06.432Z,5.35
2022-12-25T17:06:33.436Z,4.85
2022-12-25T17:09:01.097Z,5.07
2022-12-25T17:11:28.820Z,4.88
2022-12-25T17:13:57.038Z,5.40
2022-12-25T17:16:29.430Z,6.03
2022-12-25T17:19:13.047Z,7.85
2022-12-25T17:21:40.078Z,6.32
2022-12-25T17:24:07.296Z,5.95
2022-12-25T17:26:34.462Z,5.03
2022-12-25T17:29:01.493Z,3.80
2022-12-25T17:31:28.895Z,3.63
2022-12-25T17:33:56.189Z,3.58
2022-12-25T17:36:23.702Z,3.97
2022-12-25T17:38:50.909Z,10.32
2022-12-25T17:41:19.428Z,6.90
2022-12-25T17:43:47.827Z,12.27
2022-12-25T17:46:20.381Z,10.80
2022-12-25T17:48:47.990Z,9.43
2022-12-25T17:51:17.422Z,8.02
2022-12-25T17:53:47.104Z,8.32
2022-12-25T17:56:15.506Z,8.10
2022-12-25T17:58:42.612Z,8.60
2022-12-25T18:01:14.998Z,10.40
2022-12-25T18:03:44.807Z,9.75
2022-12-25T18:06:17.939Z,10.38
2022-12-25T18:08:49.324Z,9.73
2022-12-25T18:11:19.778Z,10.98
2022-12-25T18:13:48.782Z,11.25
2022-12-25T18:16:20.604Z,12.13
2022-12-25T18:23:48.270Z,9.30
2022-12-25T18:26:15.464Z,12.45
2022-12-25T18:28:43.066Z,11.88
2022-12-25T18:31:12.841Z,12.27
2022-12-25T18:33:40.369Z,11.73
2022-12-25T18:36:11.799Z,10.43
2022-12-25T18:38:39.009Z,11.45
2022-12-25T18:41:07.951Z,10.73
2022-12-25T18:43:53.122Z,12.13
2022-12-25T18:46:24.873Z,17.23
2022-12-25T18:48:53.434Z,17.67
2022-12-25T18:51:20.540Z,20.25
2022-12-25T18:53:47.568Z,15.25
2022-12-25T18:56:17.257Z,17.13
2022-12-25T18:58:45.671Z,15.55
2022-12-25T19:01:18.054Z,15.15
2022-12-25T19:03:45.639Z,9.75
2022-12-25T19:06:26.273Z,8.65
2022-12-25T19:08:54.100Z,8.55
2022-12-25T19:11:21.477Z,8.73
2022-12-25T19:13:48.934Z,20.40
2022-12-25T19:16:17.104Z,15.90
2022-12-25T19:18:45.452Z,16.52
2022-12-25T19:21:12.480Z,13.00
2022-12-25T19:23:39.668Z,15.23
2022-12-25T19:26:08.280Z,14.10
2022-12-25T19:28:35.931Z,16.88
2022-12-25T19:31:06.105Z,13.88
2022-12-25T19:33:34.817Z,14.77
2022-12-25T19:36:09.000Z,13.63
2022-12-25T19:38:36.375Z,14.13
2022-12-25T19:41:14.589Z,14.15
2022-12-25T19:43:42.798Z,13.00
2022-12-25T19:46:22.734Z,13.27
2022-12-25T19:48:50.549Z,13.30
2022-12-25T19:51:20.954Z,12.38
2022-12-25T19:53:48.357Z,13.07
2022-12-25T19:56:16.235Z,10.35
2022-12-25T19:58:43.494Z,10.38
2022-12-25T20:01:16.609Z,11.90
2022-12-25T20:03:46.490Z,11.70
2022-12-25T20:06:23.037Z,11.77
2022-12-25T20:08:53.507Z,11.55
2022-12-25T20:11:23.426Z,10.93
2022-12-25T20:13:50.753Z,9.35
2022-12-25T20:16:18.003Z,10.30
2022-12-25T20:18:45.232Z,9.68
2022-12-25T20:21:14.840Z,10.20
2022-12-25T20:23:42.816Z,10.65
2022-12-25T20:26:11.257Z,9.48
2022-12-25T20:28:39.588Z,8.30
2022-12-25T20:31:08.093Z,7.32
2022-12-25T20:33:35.477Z,9.57
2022-12-25T20:36:03.797Z,12.10
2022-12-25T20:38:30.902Z,10.25
2022-12-25T20:43:53.144Z,10.20
2022-12-25T20:46:20.302Z,8.82
2022-12-25T20:48:47.439Z,12.82
2022-12-25T20:51:20.812Z,11.65
2022-12-25T20:53:48.226Z,11.70
2022-12-25T20:56:17.812Z,10.43
2022-12-25T20:58:45.458Z,9.55
2022-12-25T21:01:17.503Z,9.35
2022-12-25T21:03:45.757Z,11.18
2022-12-25T21:06:13.158Z,9.63
2022-12-25T21:08:40.698Z,9.85
2022-12-25T21:11:08.894Z,9.13
2022-12-25T21:14:09.428Z,8.75
2022-12-25T21:16:36.513Z,9.20
2022-12-25T21:19:03.656Z,8.88
2022-12-25T21:21:30.677Z,8.10
2022-12-25T21:23:57.688Z,8.52
2022-12-25T21:26:27.656Z,9.30
2022-12-25T21:28:57.219Z,8.65
2022-12-25T21:31:25.045Z,8.93
2022-12-25T21:33:55.064Z,9.75
2022-12-25T21:36:34.104Z,9.48
2022-12-25T21:39:07.662Z,8.65
2022-12-25T21:41:37.200Z,9.20
2022-12-25T21:44:04.879Z,8.93
2022-12-25T21:46:50.314Z,7.88
2022-12-25T21:49:17.379Z,7.07
2022-12-25T21:51:44.395Z,8.15
2022-12-25T21:54:12.787Z,8.00
2022-12-25T21:56:44.772Z,6.88
2022-12-25T21:59:16.028Z,6.47
2022-12-25T22:01:44.349Z,6.27
2022-12-25T22:04:13.438Z,5.75
2022-12-25T22:06:40.716Z,5.70
2022-12-25T22:09:09.066Z,5.40
2022-12-25T22:11:36.268Z,4.75
2022-12-25T22:14:03.223Z,4.95
2022-12-25T22:16:30.223Z,4.82
2022-12-25T22:18:57.210Z,4.63
2022-12-25T22:21:26.903Z,4.85
2022-12-25T22:23:53.958Z,4.97
2022-12-25T22:26:21.288Z,4.53
2022-12-25T22:28:48.289Z,4.45
2022-12-25T22:31:15.331Z,4.22
2022-12-25T22:33:42.423Z,4.30
2022-12-25T22:36:09.638Z,3.85
2022-12-25T22:38:36.712Z,4.60
2022-12-25T22:41:07.388Z,4.03
2022-12-25T22:44:14.406Z,4.07
2022-12-25T22:46:21.915Z,3.50
2022-12-25T22:48:49.205Z,4.55
2022-12-25T22:51:16.294Z,3.85
2022-12-25T22:53:43.277Z,4.38
2022-12-25T22:56:10.577Z,4.28
2022-12-25T22:58:37.581Z,4.18
2022-12-25T23:01:08.771Z,4.13
2022-12-25T23:03:36.127Z,4.28
2022-12-25T23:06:03.591Z,4.53
2022-12-25T23:08:30.620Z,3.90
2022-12-25T23:11:04.861Z,3.75
2022-12-25T23:13:31.888Z,3.60
2022-12-25T23:16:00.238Z,3.67
2022-12-25T23:18:27.391Z,4.63
2022-12-25T23:20:59.936Z,4.10
2022-12-25T23:23:26.935Z,3.97
2022-12-25T23:25:53.941Z,4.35
2022-12-25T23:28:22.456Z,3.80
2022-12-25T23:30:49.584Z,3.67
2022-12-25T23:33:16.637Z,3.70
2022-12-25T23:35:43.614Z,3.67
2022-12-25T23:38:10.618Z,4.03
2022-12-25T23:40:37.601Z,3.88
2022-12-25T23:43:04.600Z,3.60
2022-12-25T23:45:31.615Z,3.70
2022-12-25T23:47:58.655Z,3.80
2022-12-25T23:50:25.680Z,3.63
2022-12-25T23:52:52.669Z,4.25
2022-12-25T23:55:19.763Z,3.90
2022-12-25T23:57:46.763Z,4.03
